Time;durP1;ratioP1;P1;durP2;ratioP2;P2;SDS_P1;SDS_P2;PMS_P1;PMS_P2;Temp;Humidity;BMP_temperature;BMP_pressure;BME280_temperature;BME280_humidity;BME280_pressure;Samples;Min_cycle;Max_cycle;Signal;HPM_P1;HPM_P2
2023/12/07 00:01:26;;;;;;;8.90;7.03;;;1.90;99.90;;;;;;4998941;28;20485;-80
2023/12/07 00:03:52;;;;;;;9.02;7.28;;;1.90;99.90;;;;;;4996966;28;20510;-80
2023/12/07 00:06:17;;;;;;;8.82;6.85;;;1.90;99.90;;;;;;5002691;28;21100;-80
2023/12/07 00:08:43;;;;;;;7.97;6.20;;;1.90;99.90;;;;;;5002574;28;20112;-81
2023/12/07 00:11:08;;;;;;;8.88;6.82;;;1.80;99.90;;;;;;4983474;28;20022;-79
2023/12/07 00:13:34;;;;;;;10.80;6.55;;;1.80;99.90;;;;;;4998376;28;20068;-80
2023/12/07 00:16:00;;;;;;;9.90;6.78;;;1.80;99.90;;;;;;4994034;28;20404;-80
2023/12/07 00:18:25;;;;;;;7.90;6.32;;;1.80;99.90;;;;;;4996527;28;20042;-80
2023/12/07 00:20:52;;;;;;;8.52;6.57;;;1.80;99.90;;;;;;4993792;28;20026;-80
2023/12/07 00:23:18;;;;;;;8.05;6.00;;;1.80;99.90;;;;;;4998989;28;20033;-82
2023/12/07 00:25:45;;;;;;;8.98;6.85;;;1.80;99.90;;;;;;4996617;28;20029;-80
2023/12/07 00:28:11;;;;;;;7.88;6.32;;;1.80;99.90;;;;;;4999271;28;20318;-81
2023/12/07 00:30:37;;;;;;;8.80;6.75;;;1.80;99.90;;;;;;5000085;28;20100;-80
2023/12/07 00:33:03;;;;;;;8.23;6.40;;;1.80;99.90;;;;;;4995180;28;20098;-80
2023/12/07 00:35:28;;;;;;;11.77;6.55;;;1.80;99.90;;;;;;4994941;28;20065;-80
2023/12/07 00:37:56;;;;;;;11.00;7.10;;;1.80;99.90;;;;;;4997016;28;20066;-81
2023/12/07 00:40:24;;;;;;;8.55;6.93;;;1.80;99.90;;;;;;5001724;28;20034;-82
2023/12/07 00:42:52;;;;;;;8.68;7.00;;;1.90;99.90;;;;;;4982885;28;20060;-81
2023/12/07 00:45:18;;;;;;;11.57;7.28;;;1.90;99.90;;;;;;4989048;28;20089;-81
2023/12/07 00:47:43;;;;;;;10.00;7.63;;;1.90;99.90;;;;;;4987195;28;20030;-79
2023/12/07 00:50:13;;;;;;;12.98;8.35;;;1.90;99.90;;;;;;5002290;28;20036;-80
2023/12/07 00:52:38;;;;;;;8.73;7.22;;;2.00;99.90;;;;;;4995989;28;20105;-80
2023/12/07 00:55:05;;;;;;;12.38;8.15;;;2.10;99.90;;;;;;4999876;28;20137;-80
2023/12/07 00:57:31;;;;;;;12.13;7.53;;;2.20;99.90;;;;;;5003753;28;20041;-80
2023/12/07 00:59:57;;;;;;;9.85;7.57;;;2.30;99.90;;;;;;4996489;28;20042;-80
2023/12/07 01:02:23;;;;;;;10.98;7.18;;;2.30;99.90;;;;;;5004044;28;20221;-80
2023/12/07 01:04:48;;;;;;;11.55;8.05;;;2.40;99.90;;;;;;5003801;28;20072;-80
2023/12/07 01:07:15;;;;;;;12.43;8.35;;;2.40;99.90;;;;;;5005680;28;20514;-80
2023/12/07 01:09:40;;;;;;;12.52;8.18;;;2.50;99.90;;;;;;5003984;28;20433;-80
2023/12/07 01:12:06;;;;;;;9.77;7.78;;;2.50;99.90;;;;;;4994671;28;20026;-80
2023/12/07 01:14:32;;;;;;;11.43;8.23;;;2.50;99.90;;;;;;5005500;28;20025;-79
2023/12/07 01:16:57;;;;;;;10.73;6.97;;;2.50;99.90;;;;;;4998572;28;20019;-80
2023/12/07 01:19:24;;;;;;;11.48;8.45;;;2.60;99.90;;;;;;4995405;28;20166;-80
2023/12/07 01:21:50;;;;;;;12.75;7.50;;;2.60;99.90;;;;;;5006036;28;20033;-80
2023/12/07 01:24:16;;;;;;;9.30;7.30;;;2.60;99.90;;;;;;4994598;28;20037;-79
2023/12/07 01:26:42;;;;;;;10.43;8.32;;;2.50;99.90;;;;;;5005243;28;20025;-80
2023/12/07 01:29:07;;;;;;;14.82;7.55;;;2.50;99.90;;;;;;4995584;28;20033;-82
2023/12/07 01:31:33;;;;;;;12.77;8.88;;;2.60;99.90;;;;;;4999326;28;20031;-80
2023/12/07 01:33:59;;;;;;;8.68;6.82;;;2.60;99.90;;;;;;4989418;28;20431;-81
2023/12/07 01:36:24;;;;;;;10.38;7.65;;;2.60;99.90;;;;;;4993327;28;20321;-80
2023/12/07 01:38:50;;;;;;;9.77;7.65;;;2.60;99.90;;;;;;5002882;28;20120;-80
2023/12/07 01:41:19;;;;;;;10.20;7.20;;;2.60;99.90;;;;;;5009312;28;20045;-82
2023/12/07 01:43:46;;;;;;;18.83;8.50;;;2.60;99.90;;;;;;5025891;28;20390;-80
2023/12/07 01:46:11;;;;;;;9.07;7.28;;;2.60;99.90;;;;;;5016064;28;20079;-80
2023/12/07 01:48:37;;;;;;;13.90;8.48;;;2.60;99.90;;;;;;5024246;28;20457;-80
2023/12/07 01:51:03;;;;;;;11.30;7.60;;;2.60;99.90;;;;;;5001846;28;20506;-80
2023/12/07 01:53:29;;;;;;;10.90;8.15;;;2.60;99.90;;;;;;5023637;28;20033;-80
2023/12/07 01:55:55;;;;;;;12.30;7.95;;;2.50;99.90;;;;;;5000094;28;20414;-80
2023/12/07 01:58:21;;;;;;;10.27;7.60;;;2.50;99.90;;;;;;5018516;28;20040;-80
2023/12/07 02:00:50;;;;;;;12.00;8.80;;;2.50;99.90;;;;;;5017709;28;20026;-82
2023/12/07 02:03:17;;;;;;;16.75;8.23;;;2.50;99.90;;;;;;5019339;28;20116;-80
2023/12/07 02:05:48;;;;;;;11.02;8.10;;;2.50;99.90;;;;;;5022687;28;20480;-80
2023/12/07 02:08:14;;;;;;;10.48;7.35;;;2.60;99.90;;;;;;5012834;28;20041;-79
2023/12/07 02:10:40;;;;;;;12.65;9.05;;;2.60;99.90;;;;;;5019880;28;20553;-81
2023/12/07 02:13:06;;;;;;;11.07;7.85;;;2.60;99.90;;;;;;5017720;28;20056;-80
2023/12/07 02:15:32;;;;;;;12.13;7.55;;;2.60;99.90;;;;;;5024792;28;20079;-79
2023/12/07 02:18:24;;;;;;;12.32;7.57;;;2.60;99.90;;;;;;5024813;28;20474;-80
2023/12/07 02:20:57;;;;;;;11.43;8.60;;;2.60;99.90;;;;;;5021236;28;20056;-81
2023/12/07 02:23:24;;;;;;;11.32;8.30;;;2.50;99.90;;;;;;5023470;28;20079;-80
2023/12/07 02:25:54;;;;;;;10.02;7.47;;;2.60;99.90;;;;;;5025540;28;20029;-81
2023/12/07 02:28:20;;;;;;;12.10;8.10;;;2.60;99.90;;;;;;5023436;28;20429;-80
2023/12/07 02:30:47;;;;;;;12.23;9.32;;;2.60;99.90;;;;;;5023732;28;20036;-79
2023/12/07 02:33:14;;;;;;;12.25;8.20;;;2.60;99.90;;;;;;5027995;28;20022;-79
2023/12/07 02:35:40;;;;;;;12.25;8.35;;;2.50;99.90;;;;;;5023133;28;20025;-79
2023/12/07 02:38:07;;;;;;;13.07;8.52;;;2.50;99.90;;;;;;5020874;28;20483;-80
2023/12/07 02:40:33;;;;;;;11.13;8.43;;;2.50;99.90;;;;;;5021977;28;20116;-80
2023/12/07 02:43:00;;;;;;;11.70;8.05;;;2.50;99.90;;;;;;5026933;28;22807;-81
2023/12/07 02:45:26;;;;;;;10.30;8.18;;;2.50;99.90;;;;;;5024709;28;20112;-80
2023/12/07 02:47:52;;;;;;;12.20;9.02;;;2.50;99.90;;;;;;5017536;28;20494;-80
2023/12/07 02:50:18;;;;;;;14.98;8.77;;;2.40;99.90;;;;;;5024169;28;20052;-82
2023/12/07 02:52:44;;;;;;;10.77;8.20;;;2.50;99.90;;;;;;5024800;28;20033;-80
2023/12/07 02:55:10;;;;;;;10.95;8.48;;;2.50;99.90;;;;;;5023439;28;20032;-80
2023/12/07 02:57:35;;;;;;;10.32;8.45;;;2.50;99.90;;;;;;5023663;28;20520;-80
2023/12/07 03:00:08;;;;;;;11.77;8.52;;;2.50;99.90;;;;;;5024695;28;20065;-80
2023/12/07 03:02:38;;;;;;;11.80;7.90;;;2.50;99.90;;;;;;5023996;28;20025;-80
2023/12/07 03:05:05;;;;;;;12.63;8.05;;;2.50;99.90;;;;;;5019896;28;20491;-80
2023/12/07 03:07:30;;;;;;;11.30;8.30;;;2.60;99.90;;;;;;5020895;28;20394;-80
2023/12/07 03:09:56;;;;;;;12.38;8.90;;;2.60;99.90;;;;;;5024088;28;20033;-80
2023/12/07 03:12:23;;;;;;;10.73;8.05;;;2.60;99.90;;;;;;5022311;28;20040;-80
2023/12/07 03:14:48;;;;;;;10.00;7.63;;;2.60;99.90;;;;;;5021228;28;20044;-80
2023/12/07 03:17:14;;;;;;;12.35;8.10;;;2.60;99.90;;;;;;5019983;28;20449;-80
2023/12/07 03:19:40;;;;;;;10.68;7.68;;;2.60;99.90;;;;;;5022303;28;20368;-80
2023/12/07 03:22:07;;;;;;;11.43;8.32;;;2.60;99.90;;;;;;5017550;28;20052;-80
2023/12/07 03:24:35;;;;;;;14.18;9.20;;;2.60;99.90;;;;;;5021883;28;20290;-80
2023/12/07 03:27:00;;;;;;;10.02;7.93;;;2.50;99.90;;;;;;5002901;28;20025;-80
2023/12/07 03:29:26;;;;;;;11.80;8.38;;;2.50;99.90;;;;;;5023337;28;20037;-80
2023/12/07 03:31:52;;;;;;;9.32;6.80;;;2.50;99.90;;;;;;5022516;28;20037;-80
2023/12/07 03:34:17;;;;;;;13.68;9.38;;;2.40;99.90;;;;;;5023220;28;20037;-80
2023/12/07 03:36:46;;;;;;;10.90;8.93;;;2.50;99.90;;;;;;5022288;28;20367;-82
2023/12/07 03:39:22;;;;;;;11.52;8.18;;;2.50;99.90;;;;;;5015776;28;20497;-82
2023/12/07 03:41:48;;;;;;;10.50;8.23;;;2.40;99.90;;;;;;4989868;28;20042;-80
2023/12/07 03:44:14;;;;;;;10.15;8.13;;;2.40;99.90;;;;;;5001897;28;20046;-80
2023/12/07 03:46:40;;;;;;;11.63;8.07;;;2.40;99.90;;;;;;5004238;28;20458;-80
2023/12/07 03:49:05;;;;;;;18.17;8.43;;;2.50;99.90;;;;;;4994274;28;20094;-80
2023/12/07 03:51:32;;;;;;;7.93;6.88;;;2.60;99.90;;;;;;4998294;28;20029;-80
2023/12/07 03:53:58;;;;;;;11.32;8.43;;;2.60;99.90;;;;;;4996974;28;20049;-82
2023/12/07 03:56:25;;;;;;;9.10;6.88;;;2.60;99.90;;;;;;5002737;28;20063;-80
2023/12/07 03:58:51;;;;;;;14.38;7.68;;;2.60;99.90;;;;;;4994792;28;20046;-80
2023/12/07 04:01:17;;;;;;;14.90;8.57;;;2.60;99.90;;;;;;4999753;28;20034;-80
2023/12/07 04:03:43;;;;;;;9.10;8.10;;;2.60;99.90;;;;;;4987551;28;20026;-81
2023/12/07 04:06:08;;;;;;;10.60;8.00;;;2.60;99.90;;;;;;5002623;28;20034;-80
2023/12/07 04:08:34;;;;;;;10.05;7.65;;;2.50;99.90;;;;;;5001119;28;20065;-81
2023/12/07 04:11:00;;;;;;;13.10;9.10;;;2.50;99.90;;;;;;4999281;28;20176;-82
2023/12/07 04:13:25;;;;;;;13.25;7.47;;;2.50;99.90;;;;;;4999877;28;20557;-80
2023/12/07 04:15:51;;;;;;;10.48;7.15;;;2.60;99.90;;;;;;4994140;28;20074;-80
2023/12/07 04:18:18;;;;;;;11.02;7.75;;;2.70;99.90;;;;;;5000495;28;20056;-79
2023/12/07 04:20:43;;;;;;;11.80;8.18;;;2.70;99.90;;;;;;4998141;28;20029;-80
2023/12/07 04:23:09;;;;;;;7.72;6.70;;;2.70;99.90;;;;;;5001125;28;20021;-79
2023/12/07 04:25:34;;;;;;;10.80;8.02;;;2.70;99.90;;;;;;4998749;28;20390;-80
2023/12/07 04:28:00;;;;;;;14.40;7.95;;;2.70;99.90;;;;;;5005057;28;20026;-80
2023/12/07 04:30:26;;;;;;;9.98;6.53;;;2.70;99.90;;;;;;5002885;28;20033;-80
2023/12/07 04:32:51;;;;;;;11.27;7.90;;;2.70;99.90;;;;;;4992511;28;20495;-80
2023/12/07 04:35:20;;;;;;;10.10;7.25;;;2.70;99.90;;;;;;4997165;28;20022;-83
2023/12/07 04:37:45;;;;;;;9.85;7.18;;;2.80;99.90;;;;;;5000594;28;20025;-80
2023/12/07 04:40:12;;;;;;;12.15;7.25;;;2.70;99.90;;;;;;5004580;28;20038;-79
2023/12/07 04:42:41;;;;;;;10.10;6.80;;;2.80;99.90;;;;;;5012478;28;20091;-81
2023/12/07 04:45:10;;;;;;;9.20;6.55;;;2.80;99.90;;;;;;5008929;28;20026;-82
2023/12/07 04:47:35;;;;;;;10.80;7.55;;;2.80;99.90;;;;;;5021841;28;20079;-80
2023/12/07 04:50:01;;;;;;;9.02;6.97;;;2.80;99.90;;;;;;5009573;28;20353;-80
2023/12/07 04:52:27;;;;;;;8.07;6.00;;;2.80;99.90;;;;;;5015646;28;20032;-79
2023/12/07 04:54:52;;;;;;;12.40;7.65;;;2.80;99.90;;;;;;5023049;28;20040;-80
2023/12/07 04:57:18;;;;;;;15.38;7.25;;;2.80;99.90;;;;;;5010807;28;20026;-81
2023/12/07 04:59:46;;;;;;;12.88;6.85;;;2.70;99.90;;;;;;5020485;28;20044;-83
2023/12/07 05:02:16;;;;;;;12.02;7.63;;;2.80;99.90;;;;;;5020928;28;20037;-81
2023/12/07 05:04:43;;;;;;;9.50;7.15;;;2.80;99.90;;;;;;5018095;28;20113;-82
2023/12/07 05:07:09;;;;;;;9.13;7.22;;;2.80;99.90;;;;;;5021209;28;20030;-80
2023/12/07 05:09:34;;;;;;;12.45;7.07;;;2.80;99.90;;;;;;5026715;28;20402;-81
2023/12/07 05:12:00;;;;;;;11.68;7.30;;;2.80;99.90;;;;;;5016700;28;20049;-81
2023/12/07 05:14:26;;;;;;;10.85;7.57;;;2.80;99.90;;;;;;5020037;28;20052;-79
2023/12/07 05:16:55;;;;;;;14.13;8.10;;;2.90;99.90;;;;;;5021261;28;20053;-80
2023/12/07 05:19:22;;;;;;;17.88;8.73;;;2.90;99.90;;;;;;5020027;28;20045;-80
2023/12/07 05:21:47;;;;;;;15.95;8.68;;;2.80;99.90;;;;;;5021621;28;20494;-80
2023/12/07 05:24:13;;;;;;;12.98;8.07;;;2.80;99.90;;;;;;5019526;28;20021;-80
2023/12/07 05:26:41;;;;;;;9.93;7.90;;;2.80;99.90;;;;;;5013301;28;20157;-79
2023/12/07 05:29:08;;;;;;;9.65;7.22;;;2.80;99.90;;;;;;5007558;28;20303;-80
2023/12/07 05:31:33;;;;;;;10.27;7.75;;;2.80;99.90;;;;;;5017254;28;20033;-80
2023/12/07 05:33:59;;;;;;;12.05;7.97;;;2.90;99.90;;;;;;4993616;28;20030;-80
2023/12/07 05:36:26;;;;;;;12.55;7.15;;;2.80;99.90;;;;;;5014227;28;20131;-79
2023/12/07 05:38:51;;;;;;;13.30;7.80;;;2.90;99.90;;;;;;5012797;28;20072;-80
2023/12/07 05:41:17;;;;;;;15.88;8.05;;;2.80;99.90;;;;;;5014004;28;20069;-79
2023/12/07 05:43:43;;;;;;;11.90;7.70;;;2.80;99.90;;;;;;5013696;28;20034;-79
2023/12/07 05:46:09;;;;;;;9.80;7.43;;;2.80;99.90;;;;;;5011374;28;20589;-79
2023/12/07 05:48:34;;;;;;;9.25;6.90;;;2.80;99.90;;;;;;5019809;28;20029;-79
2023/12/07 05:51:01;;;;;;;9.80;7.15;;;2.80;99.90;;;;;;5020697;28;20021;-79
2023/12/07 05:53:27;;;;;;;11.73;7.72;;;2.80;99.90;;;;;;5025989;28;20041;-79
2023/12/07 05:55:57;;;;;;;8.68;6.88;;;2.80;99.90;;;;;;5025710;28;20029;-81
2023/12/07 05:58:23;;;;;;;12.93;7.78;;;2.80;99.90;;;;;;5022143;28;20646;-81
2023/12/07 06:00:49;;;;;;;12.52;8.35;;;2.70;99.90;;;;;;5018727;28;20505;-80
2023/12/07 06:03:15;;;;;;;11.35;7.05;;;2.70;99.90;;;;;;5014894;28;20115;-79
2023/12/07 06:05:41;;;;;;;11.98;6.85;;;2.80;99.90;;;;;;5012058;28;20113;-79
2023/12/07 06:08:07;;;;;;;9.80;7.15;;;2.80;99.90;;;;;;5025309;28;20022;-79
2023/12/07 06:10:33;;;;;;;11.60;7.05;;;2.70;99.90;;;;;;5026119;28;20032;-80
2023/12/07 06:13:00;;;;;;;16.40;6.93;;;2.70;99.90;;;;;;5019385;28;20035;-79
2023/12/07 06:15:27;;;;;;;10.00;7.20;;;2.80;99.90;;;;;;5013610;28;20463;-79
2023/12/07 06:17:57;;;;;;;11.88;7.03;;;2.80;99.90;;;;;;5017294;28;20026;-79
2023/12/07 06:20:23;;;;;;;9.48;6.88;;;2.80;99.90;;;;;;5021981;28;20105;-79
2023/12/07 06:22:49;;;;;;;14.30;7.25;;;2.80;99.90;;;;;;5020464;28;20120;-80
2023/12/07 06:25:16;;;;;;;14.63;6.68;;;2.80;99.90;;;;;;5014167;28;20029;-79
2023/12/07 06:27:42;;;;;;;8.27;6.30;;;2.80;99.90;;;;;;5012412;28;20025;-81
2023/12/07 06:30:08;;;;;;;9.63;6.57;;;2.80;99.90;;;;;;5024682;28;20479;-79
2023/12/07 06:32:33;;;;;;;10.45;6.68;;;2.80;99.90;;;;;;5023530;28;20503;-80
2023/12/07 06:35:00;;;;;;;8.95;6.63;;;2.80;99.90;;;;;;5026719;28;20029;-79
2023/12/07 06:37:26;;;;;;;9.68;7.18;;;2.70;99.90;;;;;;5019564;28;20036;-79
2023/12/07 06:39:51;;;;;;;9.60;6.63;;;2.70;99.90;;;;;;5008143;28;20046;-79
2023/12/07 06:42:17;;;;;;;11.02;7.78;;;2.60;99.90;;;;;;5013596;28;20073;-79
2023/12/07 06:44:49;;;;;;;11.32;7.50;;;2.60;99.90;;;;;;5018021;28;20096;-79
2023/12/07 06:47:15;;;;;;;10.95;7.90;;;2.50;99.90;;;;;;5019391;28;20068;-78
2023/12/07 06:49:42;;;;;;;10.68;8.05;;;2.50;99.90;;;;;;5027535;28;20444;-80
2023/12/07 06:52:08;;;;;;;11.57;8.68;;;2.50;99.90;;;;;;5029990;28;20017;-81
2023/12/07 06:54:34;;;;;;;12.80;8.85;;;2.50;99.90;;;;;;5021549;28;20497;-80
2023/12/07 06:57:00;;;;;;;15.30;9.02;;;2.50;99.90;;;;;;5023685;28;20065;-78
2023/12/07 06:59:25;;;;;;;12.70;8.85;;;2.40;99.90;;;;;;5028983;28;20046;-79
2023/12/07 07:01:51;;;;;;;11.95;8.20;;;2.40;99.90;;;;;;5020435;28;20033;-79
2023/12/07 07:04:17;;;;;;;36.70;17.77;;;2.40;99.90;;;;;;5023657;28;20030;-79
2023/12/07 07:06:42;;;;;;;23.58;12.20;;;2.50;99.90;;;;;;5016731;28;20036;-79
2023/12/07 07:09:08;;;;;;;29.13;15.40;;;2.60;99.90;;;;;;5025778;28;20040;-81
2023/12/07 07:11:34;;;;;;;24.85;12.00;;;2.60;99.90;;;;;;5023339;28;20437;-80
2023/12/07 07:14:00;;;;;;;11.77;7.95;;;2.60;99.90;;;;;;5020308;28;20036;-79
2023/12/07 07:16:26;;;;;;;11.30;8.10;;;2.70;99.90;;;;;;5021566;28;20033;-79
2023/12/07 07:18:51;;;;;;;14.65;7.95;;;2.60;99.90;;;;;;5021353;28;20483;-79
2023/12/07 07:21:19;;;;;;;11.25;8.40;;;2.70;99.90;;;;;;5024657;28;20026;-79
2023/12/07 07:23:45;;;;;;;16.00;8.23;;;2.60;99.90;;;;;;5024860;28;20376;-79
2023/12/07 07:26:11;;;;;;;12.82;7.72;;;2.60;99.90;;;;;;5028931;28;20039;-79
2023/12/07 07:28:37;;;;;;;12.02;8.55;;;2.60;99.90;;;;;;5024102;28;20038;-79
2023/12/07 07:31:02;;;;;;;10.23;7.90;;;2.70;99.90;;;;;;5026283;28;20037;-79
2023/12/07 07:33:28;;;;;;;18.73;8.35;;;2.70;99.90;;;;;;5019557;28;20084;-82
2023/12/07 07:35:55;;;;;;;13.27;8.93;;;2.70;99.90;;;;;;5022302;28;20033;-79
2023/12/07 07:38:20;;;;;;;12.52;8.68;;;2.80;99.90;;;;;;5024840;28;20033;-79
2023/12/07 07:40:47;;;;;;;13.13;9.10;;;2.80;99.90;;;;;;5018633;28;20021;-79
2023/12/07 07:43:12;;;;;;;18.30;9.70;;;2.80;99.90;;;;;;5028386;28;20079;-79
2023/12/07 07:45:38;;;;;;;12.65;9.00;;;2.70;99.90;;;;;;5023446;28;20021;-78
2023/12/07 07:48:04;;;;;;;16.63;10.63;;;2.70;99.90;;;;;;5028672;28;20121;-80
2023/12/07 07:50:29;;;;;;;16.13;9.25;;;2.80;99.90;;;;;;5028590;28;20354;-79
2023/12/07 07:52:55;;;;;;;11.88;8.55;;;2.80;99.90;;;;;;5019572;28;20018;-79
2023/12/07 07:55:21;;;;;;;11.10;8.25;;;2.80;99.90;;;;;;5018865;28;20021;-80
2023/12/07 07:57:47;;;;;;;10.50;8.38;;;2.80;99.90;;;;;;5021588;28;20025;-79
2023/12/07 08:00:13;;;;;;;12.77;9.07;;;2.80;99.90;;;;;;5030110;28;20965;-79
2023/12/07 08:02:39;;;;;;;13.25;8.40;;;2.80;99.90;;;;;;5020173;28;20021;-80
2023/12/07 08:05:05;;;;;;;17.75;9.68;;;2.90;99.90;;;;;;5016061;28;20032;-81
2023/12/07 08:07:31;;;;;;;11.05;8.40;;;2.90;99.90;;;;;;5018255;28;20075;-78
2023/12/07 08:09:57;;;;;;;11.23;8.07;;;2.90;99.90;;;;;;5015096;28;20029;-79
2023/12/07 08:15:46;;;;;;;15.32;9.52;;;2.90;99.90;;;;;;4990971;28;20394;-79
2023/12/07 08:18:20;;;;;;;12.25;7.80;;;2.90;99.90;;;;;;5031273;28;20033;-79
2023/12/07 08:20:46;;;;;;;10.73;7.90;;;2.90;99.90;;;;;;5024125;28;20033;-78
2023/12/07 08:23:13;;;;;;;13.25;8.45;;;2.90;99.90;;;;;;5025421;28;20078;-83
2023/12/07 08:25:40;;;;;;;14.15;7.30;;;2.90;99.90;;;;;;5025752;28;20131;-81
2023/12/07 08:28:09;;;;;;;12.27;7.82;;;3.00;99.90;;;;;;5025331;28;20533;-79
2023/12/07 08:30:35;;;;;;;19.88;10.35;;;3.00;99.90;;;;;;5025589;28;20044;-79
2023/12/07 08:33:00;;;;;;;16.42;9.30;;;3.00;99.90;;;;;;5025864;28;20037;-79
2023/12/07 08:35:26;;;;;;;13.57;9.43;;;3.00;99.90;;;;;;5025370;28;20101;-79
2023/12/07 08:37:51;;;;;;;15.23;8.40;;;3.00;99.90;;;;;;5021762;28;20289;-79
2023/12/07 08:40:17;;;;;;;11.88;8.48;;;3.10;99.90;;;;;;5025987;28;20091;-79
2023/12/07 08:42:46;;;;;;;14.23;8.52;;;3.10;99.90;;;;;;5019951;28;20041;-80
2023/12/07 08:45:13;;;;;;;13.13;8.40;;;3.10;99.90;;;;;;5022522;28;20084;-84
2023/12/07 08:47:39;;;;;;;16.45;9.60;;;3.10;99.90;;;;;;5028930;28;20112;-84
2023/12/07 08:50:05;;;;;;;14.63;9.50;;;3.10;99.90;;;;;;5033015;28;20116;-81
2023/12/07 08:52:30;;;;;;;14.00;9.25;;;3.10;99.90;;;;;;4999898;28;20443;-80
2023/12/07 08:54:56;;;;;;;13.00;9.27;;;3.00;99.90;;;;;;5023294;28;20033;-79
2023/12/07 08:57:22;;;;;;;14.73;9.38;;;3.00;99.90;;;;;;5024118;28;20024;-79
2023/12/07 08:59:48;;;;;;;17.42;9.13;;;3.10;99.90;;;;;;5026358;28;20095;-81
2023/12/07 09:02:14;;;;;;;11.57;8.23;;;3.10;99.90;;;;;;5029857;28;20017;-79
2023/12/07 09:04:39;;;;;;;14.88;9.43;;;3.10;99.90;;;;;;5036858;28;20037;-79
2023/12/07 09:07:05;;;;;;;12.82;9.20;;;3.10;99.90;;;;;;5031869;28;20113;-80
2023/12/07 09:09:31;;;;;;;18.65;9.13;;;3.10;99.90;;;;;;5023184;28;20360;-79
2023/12/07 09:11:57;;;;;;;12.70;8.07;;;3.00;99.90;;;;;;5015408;28;20032;-78
2023/12/07 09:14:22;;;;;;;13.85;8.63;;;3.10;99.90;;;;;;5030635;28;20080;-79
2023/12/07 09:16:48;;;;;;;14.07;9.00;;;3.10;99.90;;;;;;5021337;28;20024;-81
2023/12/07 09:19:13;;;;;;;13.18;8.85;;;3.10;99.90;;;;;;5026885;28;20040;-79
2023/12/07 09:21:40;;;;;;;15.75;8.82;;;3.10;99.90;;;;;;5016244;28;20057;-78
2023/12/07 09:24:06;;;;;;;16.67;8.77;;;3.10;99.90;;;;;;5027419;28;20028;-79
2023/12/07 09:26:32;;;;;;;17.65;9.55;;;3.10;99.90;;;;;;5004858;28;20038;-79
2023/12/07 09:28:58;;;;;;;14.30;10.55;;;3.10;99.90;;;;;;5016195;28;20038;-80
2023/12/07 09:31:23;;;;;;;21.48;10.90;;;3.10;99.90;;;;;;5019134;28;20083;-79
2023/12/07 09:33:49;;;;;;;16.33;10.57;;;3.10;99.90;;;;;;5026440;28;20475;-82
2023/12/07 09:36:18;;;;;;;16.50;10.07;;;3.20;99.90;;;;;;5027053;28;20025;-79
2023/12/07 09:38:44;;;;;;;19.15;10.93;;;3.20;99.90;;;;;;5020574;28;20033;-79
2023/12/07 09:41:10;;;;;;;17.80;11.80;;;3.20;99.90;;;;;;5006655;28;20309;-79
2023/12/07 09:43:36;;;;;;;17.77;10.00;;;3.30;99.90;;;;;;5006139;28;20040;-79
2023/12/07 09:46:02;;;;;;;16.80;9.85;;;3.20;99.90;;;;;;5011358;28;20030;-79
2023/12/07 09:48:28;;;;;;;16.55;10.38;;;3.30;99.90;;;;;;4994041;28;20061;-78
2023/12/07 09:50:56;;;;;;;17.27;9.88;;;3.30;99.90;;;;;;5004814;28;20096;-79
2023/12/07 09:53:25;;;;;;;19.88;10.57;;;3.30;99.90;;;;;;5009355;28;20109;-82
2023/12/07 09:55:50;;;;;;;16.55;10.43;;;3.30;99.90;;;;;;5010356;28;20026;-79
2023/12/07 09:58:16;;;;;;;16.33;9.77;;;3.30;99.90;;;;;;5012027;28;20084;-79
2023/12/07 10:00:42;;;;;;;14.57;8.95;;;3.30;99.90;;;;;;5014024;28;20029;-82
2023/12/07 10:03:19;;;;;;;20.52;11.73;;;3.30;99.90;;;;;;5011079;28;20030;-78
2023/12/07 10:05:57;;;;;;;25.10;14.20;;;3.30;99.90;;;;;;4994435;28;20484;-80
2023/12/07 10:08:30;;;;;;;27.33;14.15;;;3.30;99.90;;;;;;5008335;28;20037;-79
2023/12/07 10:11:11;;;;;;;29.40;13.80;;;3.30;99.90;;;;;;5016109;28;20483;-79
2023/12/07 10:13:38;;;;;;;20.35;10.85;;;3.30;99.90;;;;;;5004372;28;20087;-79
2023/12/07 10:16:09;;;;;;;19.25;12.70;;;3.40;99.90;;;;;;4991562;28;20491;-79
2023/12/07 10:18:35;;;;;;;17.67;10.98;;;3.40;99.90;;;;;;5000604;28;20517;-80
2023/12/07 10:21:00;;;;;;;18.90;10.40;;;3.40;99.90;;;;;;5020446;28;20124;-79
2023/12/07 10:23:27;;;;;;;12.80;9.45;;;3.40;99.90;;;;;;5015041;28;20041;-79
2023/12/07 10:25:56;;;;;;;12.60;9.27;;;3.40;99.90;;;;;;4999796;28;20029;-83
2023/12/07 10:28:23;;;;;;;17.02;9.73;;;3.40;99.90;;;;;;5003265;28;20122;-80
2023/12/07 10:30:48;;;;;;;14.63;9.27;;;3.40;99.90;;;;;;5011437;28;20021;-80
2023/12/07 10:33:14;;;;;;;24.48;14.98;;;3.40;99.90;;;;;;4993657;28;20026;-82
2023/12/07 10:35:40;;;;;;;21.95;9.80;;;3.40;99.90;;;;;;5021699;28;20036;-79
2023/12/07 10:38:06;;;;;;;13.73;10.75;;;3.50;99.90;;;;;;4997275;28;20041;-80
2023/12/07 10:40:32;;;;;;;15.93;10.10;;;3.40;99.90;;;;;;5015739;28;20040;-80
2023/12/07 10:43:02;;;;;;;15.43;9.52;;;3.40;99.90;;;;;;4976810;28;20404;-82
2023/12/07 10:45:31;;;;;;;14.80;10.52;;;3.50;99.90;;;;;;4999432;28;20034;-83
2023/12/07 10:48:07;;;;;;;14.05;9.68;;;3.50;99.90;;;;;;4985493;28;20487;-82
2023/12/07 10:50:44;;;;;;;16.98;10.45;;;3.60;99.90;;;;;;4995787;28;20031;-81
2023/12/07 10:53:31;;;;;;;16.63;10.15;;;3.60;99.90;;;;;;4971342;28;20034;-79
2023/12/07 10:56:00;;;;;;;17.40;11.38;;;3.60;99.90;;;;;;4995241;28;20053;-79
2023/12/07 10:58:26;;;;;;;18.05;9.40;;;3.50;99.90;;;;;;5001290;28;20042;-81
2023/12/07 11:00:56;;;;;;;14.73;9.25;;;3.60;99.90;;;;;;5001417;28;20034;-81
2023/12/07 11:03:22;;;;;;;16.95;9.98;;;3.50;99.90;;;;;;4982487;28;20023;-82
2023/12/07 11:05:49;;;;;;;23.23;11.30;;;3.50;99.90;;;;;;4986818;28;20116;-82
2023/12/07 11:08:36;;;;;;;18.48;9.55;;;3.60;99.90;;;;;;5003673;28;20030;-81
2023/12/07 11:11:05;;;;;;;16.15;10.27;;;3.50;99.90;;;;;;4997733;28;20739;-82
2023/12/07 11:13:35;;;;;;;28.77;18.27;;;3.60;99.90;;;;;;5000196;28;20491;-81
2023/12/07 11:16:01;;;;;;;21.50;14.18;;;3.50;99.90;;;;;;5001804;28;20555;-80
2023/12/07 11:18:30;;;;;;;24.73;14.73;;;3.60;99.90;;;;;;5000314;28;20469;-80
2023/12/07 11:20:56;;;;;;;18.40;11.18;;;3.60;99.90;;;;;;5004223;28;20383;-80
2023/12/07 11:23:23;;;;;;;18.30;11.43;;;3.60;99.90;;;;;;4996686;28;20037;-81
2023/12/07 11:25:52;;;;;;;22.05;12.68;;;3.60;99.90;;;;;;5001507;28;20037;-81
2023/12/07 11:28:18;;;;;;;15.77;10.98;;;3.50;99.90;;;;;;5003104;28;20068;-83
2023/12/07 11:30:47;;;;;;;20.58;12.45;;;3.40;99.90;;;;;;4994187;28;20447;-80
2023/12/07 11:33:14;;;;;;;15.93;10.63;;;3.40;99.90;;;;;;5002961;28;20034;-87
2023/12/07 11:36:02;;;;;;;17.98;10.43;;;3.40;99.90;;;;;;5002037;28;20088;-83
2023/12/07 11:38:28;;;;;;;14.13;8.80;;;3.50;99.90;;;;;;4981485;28;20045;-81
2023/12/07 11:40:56;;;;;;;22.48;10.40;;;3.50;99.90;;;;;;4997641;28;20121;-82
2023/12/07 11:43:35;;;;;;;13.95;8.30;;;3.60;99.90;;;;;;5012672;28;20022;-81
2023/12/07 11:46:01;;;;;;;13.10;9.35;;;3.50;99.90;;;;;;5020826;28;20029;-86
2023/12/07 11:48:27;;;;;;;13.60;7.60;;;3.60;99.90;;;;;;5019896;28;20475;-81
2023/12/07 11:50:56;;;;;;;18.35;10.15;;;3.50;99.90;;;;;;5019187;28;20034;-82
2023/12/07 11:53:33;;;;;;;13.27;8.18;;;3.50;99.90;;;;;;5016602;28;20037;-82
2023/12/07 11:56:02;;;;;;;11.73;8.52;;;3.50;99.90;;;;;;5016503;28;20037;-81
2023/12/07 11:58:32;;;;;;;17.10;7.97;;;3.50;99.90;;;;;;5022431;28;20036;-85
2023/12/07 12:00:58;;;;;;;13.60;7.22;;;3.50;99.90;;;;;;5024899;28;20026;-84
2023/12/07 12:03:28;;;;;;;12.40;7.95;;;3.50;99.90;;;;;;5023608;28;20039;-82
2023/12/07 12:05:54;;;;;;;12.32;7.25;;;3.50;99.90;;;;;;5024368;28;20059;-81
2023/12/07 12:08:20;;;;;;;13.15;7.20;;;3.50;99.90;;;;;;5023603;28;20090;-84
2023/12/07 12:10:49;;;;;;;8.85;6.40;;;3.40;99.90;;;;;;5024110;28;20021;-80
2023/12/07 12:13:15;;;;;;;10.63;6.95;;;3.40;99.90;;;;;;5002545;28;20037;-82
2023/12/07 12:15:42;;;;;;;11.98;6.32;;;3.50;99.90;;;;;;5019147;28;20026;-81
2023/12/07 12:18:09;;;;;;;8.98;5.32;;;3.40;99.90;;;;;;5022110;28;20013;-83
2023/12/07 12:20:35;;;;;;;11.15;5.57;;;3.50;99.90;;;;;;4990797;28;20517;-82
2023/12/07 12:23:01;;;;;;;7.78;5.25;;;3.50;99.90;;;;;;4995261;28;20223;-82
2023/12/07 12:25:31;;;;;;;10.52;5.15;;;3.40;99.90;;;;;;5018578;28;20471;-81
2023/12/07 12:28:07;;;;;;;7.18;4.03;;;3.50;99.90;;;;;;5020111;28;20029;-81
2023/12/07 12:30:33;;;;;;;6.88;4.47;;;3.50;99.90;;;;;;5019412;28;20041;-81
2023/12/07 12:33:01;;;;;;;7.60;4.35;;;3.50;99.90;;;;;;5017129;28;20037;-82
2023/12/07 12:35:27;;;;;;;7.35;3.42;;;3.40;99.90;;;;;;5020992;28;20475;-82
2023/12/07 12:37:55;;;;;;;4.45;3.45;;;3.40;99.90;;;;;;5020901;28;20036;-88
2023/12/07 12:40:23;;;;;;;5.18;3.67;;;3.40;99.90;;;;;;5022603;28;20124;-83
2023/12/07 12:42:50;;;;;;;10.40;3.78;;;3.40;99.90;;;;;;5020664;28;20094;-81
2023/12/07 12:45:20;;;;;;;8.23;4.18;;;3.40;99.90;;;;;;5022076;28;20068;-81
2023/12/07 12:47:48;;;;;;;7.15;3.97;;;3.40;99.90;;;;;;5020619;28;20026;-80
2023/12/07 12:50:37;;;;;;;9.82;5.05;;;3.40;99.90;;;;;;5016905;28;20070;-81